createdAt,value
2022-10-04T00:02:30.286Z,10.30
2022-10-04T00:05:04.376Z,10.20
2022-10-04T00:07:39.083Z,10.20
2022-10-04T00:10:19.530Z,10.30
2022-10-04T00:12:50.412Z,10.30
2022-10-04T00:15:23.624Z,10.20
2022-10-04T00:18:05.755Z,10.10
2022-10-04T00:21:03.339Z,10.10
2022-10-04T00:23:46.492Z,10.00
2022-10-04T00:26:32.030Z,9.90
2022-10-04T00:29:00.713Z,10.00
2022-10-04T00:31:30.824Z,10.00
2022-10-04T00:34:38.956Z,10.00
2022-10-04T00:37:15.431Z,10.00
2022-10-04T00:39:47.236Z,9.90
2022-10-04T00:42:47.992Z,9.80
2022-10-04T00:45:29.710Z,9.80
2022-10-04T00:48:22.585Z,9.70
2022-10-04T00:50:57.822Z,9.70
2022-10-04T00:54:08.119Z,9.70
2022-10-04T00:56:46.547Z,9.60
2022-10-04T00:59:33.498Z,9.60
2022-10-04T01:02:06.331Z,9.60
2022-10-04T01:04:43.889Z,9.60
2022-10-04T01:07:15.416Z,9.60
2022-10-04T01:09:51.866Z,9.60
2022-10-04T01:12:41.033Z,9.50
2022-10-04T01:15:16.059Z,9.60
2022-10-04T01:18:09.615Z,9.60
2022-10-04T01:20:41.543Z,9.60
2022-10-04T01:23:13.170Z,9.50
2022-10-04T01:25:50.282Z,9.50
2022-10-04T01:28:19.059Z,9.40
2022-10-04T01:30:47.941Z,9.40
2022-10-04T01:33:16.695Z,9.40
2022-10-04T01:35:45.382Z,9.40
2022-10-04T01:38:15.579Z,9.30
2022-10-04T01:40:52.761Z,9.30
2022-10-04T01:43:29.936Z,9.20
2022-10-04T01:46:05.530Z,9.20
2022-10-04T01:48:38.210Z,9.20
2022-10-04T01:51:13.236Z,9.20
2022-10-04T01:53:49.230Z,9.20
2022-10-04T01:56:20.116Z,9.10
2022-10-04T01:58:52.450Z,9.10
2022-10-04T02:01:26.758Z,9.20
2022-10-04T02:04:01.443Z,9.20
2022-10-04T02:06:31.329Z,9.20
2022-10-04T02:09:08.789Z,9.30
2022-10-04T02:11:42.435Z,9.30
2022-10-04T02:14:23.461Z,9.40
2022-10-04T02:16:54.152Z,9.30
2022-10-04T02:19:25.977Z,9.30
2022-10-04T02:21:55.176Z,9.20
2022-10-04T02:24:26.014Z,9.20
2022-10-04T02:26:55.035Z,9.30
2022-10-04T02:29:23.799Z,9.20
2022-10-04T02:32:10.712Z,9.30
2022-10-04T02:34:41.165Z,9.20
2022-10-04T02:37:10.389Z,9.20
2022-10-04T02:39:45.641Z,9.20
2022-10-04T02:42:20.223Z,9.20
2022-10-04T02:44:55.337Z,9.20
2022-10-04T02:47:29.574Z,9.10
2022-10-04T02:50:01.367Z,9.10
2022-10-04T02:52:35.462Z,9.10
2022-10-04T02:55:08.688Z,9.00
2022-10-04T02:57:37.649Z,9.00
2022-10-04T03:00:19.766Z,9.10
2022-10-04T03:03:19.080Z,9.10
2022-10-04T03:05:55.121Z,9.10
2022-10-04T03:08:24.284Z,9.00
2022-10-04T03:10:54.280Z,9.10
2022-10-04T03:13:23.077Z,9.00
2022-10-04T03:15:52.348Z,8.90
2022-10-04T03:18:22.005Z,8.90
2022-10-04T03:20:50.971Z,8.90
2022-10-04T03:23:21.304Z,8.80
2022-10-04T03:25:59.207Z,8.80
2022-10-04T03:28:29.898Z,8.80
2022-10-04T03:30:59.354Z,8.70
2022-10-04T03:33:28.935Z,8.70
2022-10-04T03:35:59.449Z,8.70
2022-10-04T03:38:29.780Z,8.70
2022-10-04T03:41:02.262Z,8.70
2022-10-04T03:43:34.450Z,8.70
2022-10-04T03:46:05.446Z,8.70
2022-10-04T03:48:37.542Z,8.70
2022-10-04T03:51:08.765Z,8.80
2022-10-04T03:53:43.634Z,8.70
2022-10-04T03:56:19.232Z,8.70
2022-10-04T03:58:48.976Z,8.70
2022-10-04T04:01:28.222Z,8.70
2022-10-04T04:04:03.339Z,8.70
2022-10-04T04:06:43.863Z,8.70
2022-10-04T04:09:21.471Z,8.70
2022-10-04T04:11:52.828Z,8.80
2022-10-04T04:14:41.007Z,8.80
2022-10-04T04:20:45.950Z,8.70
2022-10-04T04:23:24.021Z,8.60
2022-10-04T04:25:56.302Z,8.50
2022-10-04T04:28:31.890Z,8.50
2022-10-04T04:31:05.706Z,8.50
2022-10-04T04:33:44.424Z,8.40
2022-10-04T04:36:41.616Z,8.30
2022-10-04T04:39:32.904Z,8.20
2022-10-04T04:42:02.044Z,8.30
2022-10-04T04:44:32.159Z,8.20
2022-10-04T04:47:01.086Z,8.20
2022-10-04T04:49:32.827Z,8.20
2022-10-04T04:52:01.396Z,8.20
2022-10-04T04:54:30.259Z,8.10
2022-10-04T04:56:59.108Z,8.10
2022-10-04T04:59:28.877Z,8.20
2022-10-04T05:01:59.060Z,8.30
2022-10-04T05:04:28.938Z,8.30
2022-10-04T05:07:03.367Z,8.40
2022-10-04T05:09:34.378Z,8.50
2022-10-04T05:12:10.276Z,8.60
2022-10-04T05:14:41.581Z,8.80
2022-10-04T05:17:21.073Z,8.90
2022-10-04T05:19:50.647Z,9.20
2022-10-04T05:22:22.792Z,9.30
2022-10-04T05:24:59.372Z,9.50
2022-10-04T05:27:33.176Z,9.70
2022-10-04T05:30:07.405Z,10.00
2022-10-04T05:32:49.604Z,10.20
2022-10-04T05:35:19.311Z,10.60
2022-10-04T05:37:56.998Z,10.80
2022-10-04T05:40:46.543Z,10.80
2022-10-04T05:43:31.303Z,11.00
2022-10-04T05:46:18.628Z,11.30
2022-10-04T05:48:54.095Z,11.40
2022-10-04T05:51:25.148Z,11.60
2022-10-04T05:53:54.704Z,11.70
2022-10-04T05:56:58.612Z,11.90
2022-10-04T05:59:47.551Z,12.00
2022-10-04T06:02:29.452Z,12.00
2022-10-04T06:05:10.819Z,12.00
2022-10-04T06:07:43.970Z,11.80
2022-10-04T06:10:47.010Z,11.80
2022-10-04T06:13:29.269Z,12.00
2022-10-04T06:16:05.723Z,12.20
2022-10-04T06:19:00.823Z,12.50
2022-10-04T06:21:32.263Z,12.80
2022-10-04T06:24:06.844Z,13.10
2022-10-04T06:27:03.526Z,13.30
2022-10-04T06:29:38.658Z,13.50
2022-10-04T06:32:26.848Z,13.50
2022-10-04T06:35:38.057Z,13.40
2022-10-04T06:39:00.867Z,13.30
2022-10-04T06:41:46.385Z,13.10
2022-10-04T06:44:46.445Z,13.00
2022-10-04T06:47:56.059Z,12.90
2022-10-04T06:50:32.172Z,12.80
2022-10-04T06:53:16.785Z,12.80
2022-10-04T06:56:28.178Z,12.90
2022-10-04T06:59:29.193Z,12.90
2022-10-04T07:02:00.384Z,12.80
2022-10-04T07:05:08.025Z,12.90
2022-10-04T07:07:40.349Z,12.80
2022-10-04T07:10:32.405Z,12.90
2022-10-04T07:13:14.879Z,13.00
2022-10-04T07:15:50.560Z,13.30
2022-10-04T07:18:25.568Z,13.60
2022-10-04T07:21:02.451Z,13.80
2022-10-04T07:23:35.859Z,14.00
2022-10-04T07:26:07.894Z,14.00
2022-10-04T07:29:01.367Z,14.10
2022-10-04T07:31:34.550Z,14.10
2022-10-04T07:34:10.760Z,13.80
2022-10-04T07:36:46.884Z,13.70
2022-10-04T07:39:43.697Z,13.40
2022-10-04T07:42:22.425Z,13.00
2022-10-04T07:45:05.054Z,12.90
2022-10-04T07:47:35.336Z,12.80
2022-10-04T07:50:21.939Z,12.70
2022-10-04T07:53:07.107Z,12.60
2022-10-04T07:55:53.081Z,12.70
2022-10-04T07:58:35.383Z,12.70
2022-10-04T08:01:35.672Z,13.00
2022-10-04T08:04:15.655Z,13.60
2022-10-04T08:07:00.376Z,14.10
2022-10-04T08:09:44.203Z,14.50
2022-10-04T08:12:22.966Z,14.80
2022-10-04T08:15:44.292Z,15.20
2022-10-04T08:18:53.938Z,15.40
2022-10-04T08:21:32.164Z,15.50
2022-10-04T08:24:16.788Z,15.60
2022-10-04T08:27:00.640Z,15.70
2022-10-04T08:29:53.563Z,15.70
2022-10-04T08:32:34.438Z,15.90
2022-10-04T08:35:33.915Z,16.00
2022-10-04T08:38:17.265Z,15.80
2022-10-04T08:41:25.011Z,15.40
2022-10-04T08:44:17.876Z,14.90
2022-10-04T08:47:21.774Z,14.50
2022-10-04T08:50:36.274Z,14.20
2022-10-04T08:53:49.011Z,14.00
2022-10-04T08:56:25.871Z,13.90
2022-10-04T08:59:25.810Z,13.80
2022-10-04T09:02:19.613Z,13.70
2022-10-04T09:05:23.613Z,13.70
2022-10-04T09:08:24.432Z,13.60
2022-10-04T09:11:34.859Z,13.70
2022-10-04T09:14:37.685Z,13.60
2022-10-04T09:17:22.593Z,13.50
2022-10-04T09:20:13.890Z,13.60
2022-10-04T09:22:50.470Z,13.70
2022-10-04T09:25:33.452Z,13.80
2022-10-04T09:28:21.221Z,13.90
2022-10-04T09:31:30.209Z,14.20
2022-10-04T09:34:48.950Z,14.60
2022-10-04T09:37:30.518Z,15.00
2022-10-04T09:40:38.612Z,15.40
2022-10-04T09:43:50.960Z,15.80
2022-10-04T09:46:56.273Z,16.00
2022-10-04T09:49:48.042Z,16.00
2022-10-04T09:52:30.085Z,15.80
2022-10-04T09:55:25.842Z,15.60
2022-10-04T09:58:34.879Z,15.40
2022-10-04T10:01:12.976Z,15.30
2022-10-04T10:04:45.746Z,15.20
2022-10-04T10:07:39.732Z,15.10
2022-10-04T10:13:58.325Z,14.80
2022-10-04T10:16:42.610Z,14.70
2022-10-04T10:19:43.344Z,14.60
2022-10-04T10:22:29.087Z,14.50
2022-10-04T10:25:14.203Z,14.50
2022-10-04T10:28:17.214Z,14.50
2022-10-04T10:31:09.310Z,14.40
2022-10-04T10:34:15.156Z,14.60
2022-10-04T10:37:18.989Z,14.60
2022-10-04T10:40:29.004Z,14.70
2022-10-04T10:43:21.235Z,15.10
2022-10-04T10:46:03.536Z,15.70
2022-10-04T10:48:54.220Z,16.10
2022-10-04T10:51:42.470Z,16.40
2022-10-04T10:54:53.708Z,16.80
2022-10-04T10:57:49.378Z,17.10
2022-10-04T11:00:23.151Z,17.20
2022-10-04T11:03:33.285Z,17.30
2022-10-04T11:06:39.612Z,17.50
2022-10-04T11:09:33.616Z,17.70
2022-10-04T11:12:39.289Z,17.40
2022-10-04T11:15:43.134Z,16.90
2022-10-04T11:19:00.372Z,16.70
2022-10-04T11:22:09.682Z,16.80
2022-10-04T11:25:14.776Z,16.90
2022-10-04T11:28:13.949Z,16.90
2022-10-04T11:31:14.673Z,17.00
2022-10-04T11:33:57.960Z,17.10
2022-10-04T11:36:39.182Z,17.10
2022-10-04T11:39:36.487Z,17.10
2022-10-04T11:42:18.788Z,17.10
2022-10-04T11:45:15.359Z,17.10
2022-10-04T11:47:53.529Z,17.10
2022-10-04T11:50:40.037Z,17.20
2022-10-04T11:53:40.591Z,17.30
2022-10-04T11:56:34.415Z,17.40
2022-10-04T11:59:19.541Z,17.20
2022-10-04T12:02:33.925Z,17.00
2022-10-04T12:05:35.304Z,16.80
2022-10-04T12:08:20.112Z,17.00
2022-10-04T12:11:13.110Z,17.20
2022-10-04T12:13:57.694Z,17.20
2022-10-04T12:16:57.744Z,17.00
2022-10-04T12:23:03.445Z,16.70
2022-10-04T12:25:54.935Z,16.10
2022-10-04T12:28:56.757Z,16.10
2022-10-04T12:31:30.178Z,16.30
2022-10-04T12:34:06.627Z,16.50
2022-10-04T12:36:49.651Z,16.60
2022-10-04T12:39:45.980Z,16.90
2022-10-04T12:42:29.255Z,17.10
2022-10-04T12:45:28.577Z,17.30
2022-10-04T12:48:11.298Z,17.40
2022-10-04T12:50:54.282Z,17.40
2022-10-04T12:53:34.804Z,17.40
2022-10-04T12:56:13.432Z,17.20
2022-10-04T12:58:57.486Z,16.90
2022-10-04T13:01:34.527Z,16.80
2022-10-04T13:04:18.543Z,16.80
2022-10-04T13:07:31.905Z,16.70
2022-10-04T13:10:24.619Z,16.90
2022-10-04T13:13:42.675Z,17.10
2022-10-04T13:19:18.525Z,17.00
2022-10-04T13:22:32.112Z,16.70
2022-10-04T13:25:23.738Z,16.60
2022-10-04T13:28:01.702Z,16.50
2022-10-04T13:30:38.924Z,16.30
2022-10-04T13:33:18.292Z,16.30
2022-10-04T13:35:55.967Z,16.50
2022-10-04T13:39:07.351Z,16.60
2022-10-04T13:41:57.617Z,16.70
2022-10-04T13:44:44.200Z,16.80
2022-10-04T13:47:31.500Z,16.70
2022-10-04T13:50:14.383Z,16.70
2022-10-04T13:53:12.980Z,16.60
2022-10-04T13:56:05.942Z,16.40
2022-10-04T13:58:46.614Z,16.10
2022-10-04T14:02:13.780Z,15.80
2022-10-04T14:05:10.258Z,15.50
2022-10-04T14:08:00.074Z,15.30
2022-10-04T14:10:48.845Z,15.10
2022-10-04T14:14:18.671Z,15.00
2022-10-04T14:17:51.866Z,14.90
2022-10-04T14:21:05.268Z,14.80
2022-10-04T14:23:54.967Z,14.80
2022-10-04T14:26:46.638Z,14.80
2022-10-04T14:29:41.682Z,14.80
2022-10-04T14:32:52.387Z,14.70
2022-10-04T14:35:25.552Z,14.60
2022-10-04T14:38:29.415Z,14.60
2022-10-04T14:41:47.011Z,14.60
2022-10-04T14:44:45.161Z,14.50
2022-10-04T14:47:49.376Z,14.40
2022-10-04T14:50:50.848Z,14.20
2022-10-04T14:53:28.792Z,14.10
2022-10-04T14:56:26.352Z,14.10
2022-10-04T14:59:06.275Z,14.00
2022-10-04T15:01:36.642Z,13.90
2022-10-04T15:04:19.979Z,13.80
2022-10-04T15:06:51.632Z,13.80
2022-10-04T15:09:43.395Z,13.70
2022-10-04T15:13:09.427Z,13.70
2022-10-04T15:15:54.373Z,13.60
2022-10-04T15:18:32.688Z,13.60
2022-10-04T15:21:07.563Z,13.60
2022-10-04T15:23:40.600Z,13.50
2022-10-04T15:26:51.312Z,13.50
2022-10-04T15:29:28.055Z,13.40
2022-10-04T15:32:07.885Z,13.30
2022-10-04T15:34:45.736Z,13.30
2022-10-04T15:37:25.633Z,13.20
2022-10-04T15:40:16.030Z,13.10
2022-10-04T15:43:18.333Z,13.10
2022-10-04T15:46:24.131Z,13.10
2022-10-04T15:49:27.848Z,13.00
2022-10-04T15:52:17.184Z,13.00
2022-10-04T15:55:25.338Z,13.00
2022-10-04T15:58:26.297Z,12.90
2022-10-04T16:01:20.499Z,12.90
2022-10-04T16:03:57.477Z,12.90
2022-10-04T16:06:30.133Z,12.80
2022-10-04T16:09:16.916Z,12.80
2022-10-04T16:12:07.257Z,12.70
2022-10-04T16:14:52.627Z,12.60
2022-10-04T16:17:53.699Z,12.50
2022-10-04T16:20:55.696Z,12.40
2022-10-04T16:23:35.352Z,12.40
2022-10-04T16:26:06.541Z,12.40
2022-10-04T16:29:00.550Z,12.40
2022-10-04T16:31:52.547Z,12.30
2022-10-04T16:34:46.173Z,12.30
2022-10-04T16:37:20.436Z,12.20
2022-10-04T16:40:04.011Z,12.10
2022-10-04T16:42:49.615Z,12.10
2022-10-04T16:45:44.482Z,12.00
2022-10-04T16:48:34.500Z,11.90
2022-10-04T16:51:40.716Z,11.90
2022-10-04T16:54:34.126Z,11.80
2022-10-04T16:57:16.777Z,11.70
2022-10-04T16:59:49.397Z,11.70
2022-10-04T17:02:38.194Z,11.60
2022-10-04T17:05:23.147Z,11.50
2022-10-04T17:08:11.424Z,11.40
2022-10-04T17:11:14.963Z,11.40
2022-10-04T17:13:56.721Z,11.40
2022-10-04T17:16:32.672Z,11.30
2022-10-04T17:19:28.454Z,11.30
2022-10-04T17:22:05.936Z,11.20
2022-10-04T17:24:52.557Z,11.20
2022-10-04T17:27:28.666Z,11.20
2022-10-04T17:30:13.748Z,11.20
2022-10-04T17:32:56.544Z,11.10
2022-10-04T17:35:55.116Z,11.10
2022-10-04T17:38:31.975Z,11.10
2022-10-04T17:41:11.072Z,11.10
2022-10-04T17:43:47.820Z,11.10
2022-10-04T17:46:22.122Z,11.00
2022-10-04T17:49:27.365Z,11.00
2022-10-04T17:55:19.553Z,10.90
2022-10-04T17:57:52.941Z,10.90
2022-10-04T18:00:25.512Z,10.80
2022-10-04T18:03:05.670Z,10.80
2022-10-04T18:05:45.550Z,10.70
2022-10-04T18:08:19.626Z,10.70
2022-10-04T18:10:51.827Z,10.60
2022-10-04T18:13:27.357Z,10.60
2022-10-04T18:16:05.336Z,10.50
2022-10-04T18:18:41.051Z,10.50
2022-10-04T18:21:23.510Z,10.50
2022-10-04T18:23:58.172Z,10.50
2022-10-04T18:26:30.151Z,10.60
2022-10-04T18:29:01.333Z,10.60
2022-10-04T18:31:44.319Z,10.60
2022-10-04T18:34:28.331Z,10.60
2022-10-04T18:37:06.952Z,10.60
2022-10-04T18:39:49.558Z,10.50
2022-10-04T18:42:23.835Z,10.50
2022-10-04T18:44:59.604Z,10.50
2022-10-04T18:47:36.010Z,10.50
2022-10-04T18:50:17.416Z,10.40
2022-10-04T18:52:58.780Z,10.40
2022-10-04T18:55:40.943Z,10.40
2022-10-04T18:58:42.238Z,10.40
2022-10-04T19:01:39.993Z,10.30
2022-10-04T19:04:18.377Z,10.20
2022-10-04T19:06:48.668Z,10.10
2022-10-04T19:09:25.254Z,10.10
2022-10-04T19:11:57.499Z,10.00
2022-10-04T19:14:33.806Z,9.90
2022-10-04T19:17:08.304Z,9.80
2022-10-04T19:19:48.611Z,9.80
2022-10-04T19:22:30.972Z,9.70
2022-10-04T19:25:22.316Z,9.70
2022-10-04T19:27:53.660Z,9.60
2022-10-04T19:30:24.178Z,9.50
2022-10-04T19:33:05.325Z,9.40
2022-10-04T19:35:53.493Z,9.40
2022-10-04T19:38:45.341Z,9.30
2022-10-04T19:41:24.946Z,9.20
2022-10-04T19:43:59.153Z,9.20
2022-10-04T19:46:41.886Z,9.20
2022-10-04T19:49:20.435Z,9.20
2022-10-04T19:51:54.708Z,9.10
2022-10-04T19:54:29.583Z,9.10
2022-10-04T19:57:02.104Z,9.10
2022-10-04T19:59:56.932Z,9.10
2022-10-04T20:02:25.765Z,9.00
2022-10-04T20:05:04.064Z,9.00
2022-10-04T20:07:35.068Z,9.00
2022-10-04T20:10:23.150Z,8.90
2022-10-04T20:13:34.265Z,8.90
2022-10-04T20:16:02.970Z,8.80
2022-10-04T20:19:00.829Z,8.80
2022-10-04T20:21:32.931Z,8.90
2022-10-04T20:24:03.659Z,9.00
2022-10-04T20:26:56.925Z,8.90
2022-10-04T20:30:07.745Z,8.90
2022-10-04T20:32:59.829Z,8.80
2022-10-04T20:36:22.744Z,8.80
2022-10-04T20:39:00.963Z,8.70
2022-10-04T20:42:20.676Z,8.70
2022-10-04T20:44:54.432Z,8.70
2022-10-04T20:47:44.492Z,8.60
2022-10-04T20:50:22.997Z,8.50
2022-10-04T20:52:54.155Z,8.50
2022-10-04T20:55:28.242Z,8.50
2022-10-04T20:58:01.635Z,8.40
2022-10-04T21:00:35.594Z,8.30
2022-10-04T21:03:15.714Z,8.30
2022-10-04T21:05:44.549Z,8.20
2022-10-04T21:08:23.734Z,8.10
2022-10-04T21:11:22.781Z,8.10
2022-10-04T21:13:58.864Z,8.00
2022-10-04T21:16:42.908Z,8.00
2022-10-04T21:19:50.916Z,7.90
2022-10-04T21:22:53.242Z,7.90
2022-10-04T21:25:32.696Z,7.80
2022-10-04T21:28:31.217Z,7.80
2022-10-04T21:31:02.699Z,7.80
2022-10-04T21:33:34.670Z,7.80
2022-10-04T21:36:03.474Z,7.80
2022-10-04T21:38:32.782Z,7.80
2022-10-04T21:41:01.243Z,7.80
2022-10-04T21:43:29.856Z,7.80
2022-10-04T21:45:58.439Z,7.90
2022-10-04T21:48:28.234Z,7.80
2022-10-04T21:50:57.144Z,7.90
2022-10-04T21:53:25.535Z,8.00
2022-10-04T21:55:54.108Z,8.00
2022-10-04T21:58:22.931Z,8.00
2022-10-04T22:00:51.746Z,8.00
2022-10-04T22:03:20.576Z,8.10
2022-10-04T22:05:50.759Z,8.20
2022-10-04T22:08:19.230Z,8.20
2022-10-04T22:10:48.547Z,8.20
2022-10-04T22:13:17.293Z,8.30
2022-10-04T22:15:45.771Z,8.30
2022-10-04T22:18:14.495Z,8.40
2022-10-04T22:20:43.039Z,8.40
2022-10-04T22:23:21.042Z,8.50
2022-10-04T22:26:15.187Z,8.50
2022-10-04T22:28:49.090Z,8.50
2022-10-04T22:31:20.390Z,8.50
2022-10-04T22:33:50.895Z,8.60
2022-10-04T22:36:21.961Z,8.60
2022-10-04T22:38:57.860Z,8.70
2022-10-04T22:41:30.217Z,8.60
2022-10-04T22:44:00.883Z,8.60
2022-10-04T22:46:36.094Z,8.70
2022-10-04T22:49:11.070Z,8.70
2022-10-04T22:51:47.748Z,8.70
2022-10-04T22:54:21.320Z,8.70
2022-10-04T22:56:50.749Z,8.70
2022-10-04T22:59:21.143Z,8.80
2022-10-04T23:01:49.951Z,8.70
2022-10-04T23:04:23.576Z,8.60
2022-10-04T23:06:53.218Z,8.60
2022-10-04T23:09:23.288Z,8.50
2022-10-04T23:11:51.872Z,8.50
2022-10-04T23:14:39.470Z,8.40
2022-10-04T23:17:22.038Z,8.30
2022-10-04T23:19:51.549Z,8.30
2022-10-04T23:22:27.615Z,8.40
2022-10-04T23:24:58.427Z,8.30
2022-10-04T23:27:27.051Z,8.30
2022-10-04T23:30:02.181Z,8.20
2022-10-04T23:32:34.807Z,8.20
2022-10-04T23:35:06.305Z,8.10
2022-10-04T23:37:35.659Z,8.00
2022-10-04T23:40:10.161Z,8.00
2022-10-04T23:42:38.854Z,7.90
2022-10-04T23:45:15.483Z,7.80
2022-10-04T23:47:44.114Z,7.80
2022-10-04T23:50:23.893Z,7.80
2022-10-04T23:52:55.367Z,7.70
2022-10-04T23:55:28.969Z,7.60
2022-10-04T23:57:58.238Z,7.60
